sensor_id;sensor_type;location;lat;lon;timestamp;temperature;humidity
45329;DHT22;31063;48.356;10.896;2022-11-18T00:00:53;8.60;99.90
45329;DHT22;31063;48.356;10.896;2022-11-18T00:03:19;8.70;99.90
45329;DHT22;31063;48.356;10.896;2022-11-18T00:05:55;8.70;99.90
45329;DHT22;31063;48.356;10.896;2022-11-18T00:08:22;8.60;99.90
45329;DHT22;31063;48.356;10.896;2022-11-18T00:10:48;8.70;99.90
45329;DHT22;31063;48.356;10.896;2022-11-18T00:13:14;8.60;99.90
45329;DHT22;31063;48.356;10.896;2022-11-18T00:16:03;8.70;99.90
45329;DHT22;31063;48.356;10.896;2022-11-18T00:18:30;8.70;99.90
45329;DHT22;31063;48.356;10.896;2022-11-18T00:21:06;8.70;99.90
45329;DHT22;31063;48.356;10.896;2022-11-18T00:23:33;8.70;99.90
45329;DHT22;31063;48.356;10.896;2022-11-18T00:26:13;8.60;99.90
45329;DHT22;31063;48.356;10.896;2022-11-18T00:28:40;8.70;99.90
45329;DHT22;31063;48.356;10.896;2022-11-18T00:31:14;8.70;99.90
45329;DHT22;31063;48.356;10.896;2022-11-18T00:33:40;8.70;99.90
45329;DHT22;31063;48.356;10.896;2022-11-18T00:36:09;8.60;99.90
45329;DHT22;31063;48.356;10.896;2022-11-18T00:38:34;8.70;99.90
45329;DHT22;31063;48.356;10.896;2022-11-18T00:41:06;8.60;99.90
45329;DHT22;31063;48.356;10.896;2022-11-18T00:43:33;8.70;99.90
45329;DHT22;31063;48.356;10.896;2022-11-18T00:45:59;8.70;99.90
45329;DHT22;31063;48.356;10.896;2022-11-18T00:48:25;8.60;99.90
45329;DHT22;31063;48.356;10.896;2022-11-18T00:50:52;8.70;99.90
45329;DHT22;31063;48.356;10.896;2022-11-18T00:53:20;8.70;99.90
45329;DHT22;31063;48.356;10.896;2022-11-18T00:55:46;8.70;99.90
45329;DHT22;31063;48.356;10.896;2022-11-18T00:58:12;8.70;99.90
45329;DHT22;31063;48.356;10.896;2022-11-18T01:00:44;8.70;99.90
45329;DHT22;31063;48.356;10.896;2022-11-18T01:03:11;8.70;99.90
45329;DHT22;31063;48.356;10.896;2022-11-18T01:05:38;8.70;99.90
45329;DHT22;31063;48.356;10.896;2022-11-18T01:08:05;8.70;99.90
45329;DHT22;31063;48.356;10.896;2022-11-18T01:10:31;8.70;99.90
45329;DHT22;31063;48.356;10.896;2022-11-18T01:12:58;8.70;99.90
45329;DHT22;31063;48.356;10.896;2022-11-18T01:15:44;8.70;99.90
45329;DHT22;31063;48.356;10.896;2022-11-18T01:18:10;8.70;99.90
45329;DHT22;31063;48.356;10.896;2022-11-18T01:20:36;8.70;99.90
45329;DHT22;31063;48.356;10.896;2022-11-18T01:23:02;8.70;99.90
45329;DHT22;31063;48.356;10.896;2022-11-18T01:25:28;8.60;99.90
45329;DHT22;31063;48.356;10.896;2022-11-18T01:27:54;8.70;99.90
45329;DHT22;31063;48.356;10.896;2022-11-18T01:30:20;8.70;99.90
45329;DHT22;31063;48.356;10.896;2022-11-18T01:32:46;8.60;99.90
45329;DHT22;31063;48.356;10.896;2022-11-18T01:35:12;8.60;99.90
45329;DHT22;31063;48.356;10.896;2022-11-18T01:37:37;8.60;99.90
45329;DHT22;31063;48.356;10.896;2022-11-18T01:40:05;8.60;99.90
45329;DHT22;31063;48.356;10.896;2022-11-18T01:42:31;8.60;99.90
45329;DHT22;31063;48.356;10.896;2022-11-18T01:45:18;8.60;99.90
45329;DHT22;31063;48.356;10.896;2022-11-18T01:47:55;8.60;99.90
45329;DHT22;31063;48.356;10.896;2022-11-18T01:50:22;8.60;99.90
45329;DHT22;31063;48.356;10.896;2022-11-18T01:52:49;8.60;99.90
45329;DHT22;31063;48.356;10.896;2022-11-18T01:55:17;8.60;99.90
45329;DHT22;31063;48.356;10.896;2022-11-18T01:57:45;8.60;99.90
45329;DHT22;31063;48.356;10.896;2022-11-18T02:00:12;8.60;99.90
45329;DHT22;31063;48.356;10.896;2022-11-18T02:02:38;8.60;99.90
45329;DHT22;31063;48.356;10.896;2022-11-18T02:05:06;8.50;99.90
45329;DHT22;31063;48.356;10.896;2022-11-18T02:07:34;8.50;99.90
45329;DHT22;31063;48.356;10.896;2022-11-18T02:10:04;8.50;99.90
45329;DHT22;31063;48.356;10.896;2022-11-18T02:12:30;8.50;99.90
45329;DHT22;31063;48.356;10.896;2022-11-18T02:14:56;8.60;99.90
45329;DHT22;31063;48.356;10.896;2022-11-18T02:17:41;8.50;99.90
45329;DHT22;31063;48.356;10.896;2022-11-18T02:25:30;8.50;99.90
45329;DHT22;31063;48.356;10.896;2022-11-18T02:30:52;8.50;99.90
45329;DHT22;31063;48.356;10.896;2022-11-18T02:33:27;8.50;99.90
45329;DHT22;31063;48.356;10.896;2022-11-18T02:36:01;8.50;99.90
45329;DHT22;31063;48.356;10.896;2022-11-18T02:38:49;8.50;99.90
45329;DHT22;31063;48.356;10.896;2022-11-18T02:41:20;8.50;99.90
45329;DHT22;31063;48.356;10.896;2022-11-18T02:43:53;8.40;99.90
45329;DHT22;31063;48.356;10.896;2022-11-18T02:46:26;8.40;99.90
45329;DHT22;31063;48.356;10.896;2022-11-18T02:48:53;8.40;99.90
45329;DHT22;31063;48.356;10.896;2022-11-18T02:51:24;8.40;99.90
45329;DHT22;31063;48.356;10.896;2022-11-18T02:53:51;8.40;99.90
45329;DHT22;31063;48.356;10.896;2022-11-18T02:56:20;8.30;99.90
45329;DHT22;31063;48.356;10.896;2022-11-18T02:58:46;8.30;99.90
45329;DHT22;31063;48.356;10.896;2022-11-18T03:01:23;8.30;99.90
45329;DHT22;31063;48.356;10.896;2022-11-18T03:03:49;8.30;99.90
45329;DHT22;31063;48.356;10.896;2022-11-18T03:12:03;8.20;99.90
45329;DHT22;31063;48.356;10.896;2022-11-18T03:17:02;8.30;99.90
45329;DHT22;31063;48.356;10.896;2022-11-18T03:22:27;8.20;99.90
45329;DHT22;31063;48.356;10.896;2022-11-18T03:25:08;8.20;99.90
45329;DHT22;31063;48.356;10.896;2022-11-18T03:30:16;8.20;99.90
45329;DHT22;31063;48.356;10.896;2022-11-18T03:32:47;8.20;99.90
45329;DHT22;31063;48.356;10.896;2022-11-18T03:35:21;8.20;99.90
45329;DHT22;31063;48.356;10.896;2022-11-18T03:37:49;8.20;99.90
45329;DHT22;31063;48.356;10.896;2022-11-18T03:40:23;8.20;99.90
45329;DHT22;31063;48.356;10.896;2022-11-18T03:42:58;8.20;99.90
45329;DHT22;31063;48.356;10.896;2022-11-18T03:45:36;8.20;99.90
45329;DHT22;31063;48.356;10.896;2022-11-18T03:48:13;8.20;99.90
45329;DHT22;31063;48.356;10.896;2022-11-18T03:51:29;8.20;99.90
45329;DHT22;31063;48.356;10.896;2022-11-18T03:53:32;8.30;99.90
45329;DHT22;31063;48.356;10.896;2022-11-18T03:56:10;8.20;99.90
45329;DHT22;31063;48.356;10.896;2022-11-18T03:59:17;8.20;99.90
45329;DHT22;31063;48.356;10.896;2022-11-18T04:02:11;8.20;99.90
45329;DHT22;31063;48.356;10.896;2022-11-18T04:04:38;8.20;99.90
45329;DHT22;31063;48.356;10.896;2022-11-18T04:07:25;8.20;99.90
45329;DHT22;31063;48.356;10.896;2022-11-18T04:10:10;8.20;99.90
45329;DHT22;31063;48.356;10.896;2022-11-18T04:12:43;8.20;99.90
45329;DHT22;31063;48.356;10.896;2022-11-18T04:15:10;8.20;99.90
45329;DHT22;31063;48.356;10.896;2022-11-18T04:17:35;8.20;99.90
45329;DHT22;31063;48.356;10.896;2022-11-18T04:20:01;8.20;99.90
45329;DHT22;31063;48.356;10.896;2022-11-18T04:22:27;8.20;99.90
45329;DHT22;31063;48.356;10.896;2022-11-18T04:24:52;8.20;99.90
45329;DHT22;31063;48.356;10.896;2022-11-18T04:27:18;8.20;99.90
45329;DHT22;31063;48.356;10.896;2022-11-18T04:29:43;8.20;99.90
45329;DHT22;31063;48.356;10.896;2022-11-18T04:32:09;8.20;99.90
45329;DHT22;31063;48.356;10.896;2022-11-18T04:34:35;8.20;99.90
45329;DHT22;31063;48.356;10.896;2022-11-18T04:37:00;8.20;99.90
45329;DHT22;31063;48.356;10.896;2022-11-18T04:39:26;8.20;99.90
45329;DHT22;31063;48.356;10.896;2022-11-18T04:41:52;8.20;99.90
45329;DHT22;31063;48.356;10.896;2022-11-18T04:44:22;8.20;99.90
45329;DHT22;31063;48.356;10.896;2022-11-18T04:46:48;8.10;99.90
45329;DHT22;31063;48.356;10.896;2022-11-18T04:49:14;8.20;99.90
45329;DHT22;31063;48.356;10.896;2022-11-18T04:51:41;8.20;99.90
45329;DHT22;31063;48.356;10.896;2022-11-18T04:54:07;8.20;99.90
45329;DHT22;31063;48.356;10.896;2022-11-18T04:56:33;8.20;99.90
45329;DHT22;31063;48.356;10.896;2022-11-18T04:58:59;8.10;99.90
45329;DHT22;31063;48.356;10.896;2022-11-18T05:01:26;8.10;99.90
45329;DHT22;31063;48.356;10.896;2022-11-18T05:03:52;8.20;99.90
45329;DHT22;31063;48.356;10.896;2022-11-18T05:06:18;8.20;99.90
45329;DHT22;31063;48.356;10.896;2022-11-18T05:08:43;8.10;99.90
45329;DHT22;31063;48.356;10.896;2022-11-18T05:11:09;8.20;99.90
45329;DHT22;31063;48.356;10.896;2022-11-18T05:13:53;8.20;99.90
45329;DHT22;31063;48.356;10.896;2022-11-18T05:16:19;8.20;99.90
45329;DHT22;31063;48.356;10.896;2022-11-18T05:18:44;8.20;99.90
45329;DHT22;31063;48.356;10.896;2022-11-18T05:21:10;8.20;99.90
45329;DHT22;31063;48.356;10.896;2022-11-18T05:23:36;8.10;99.90
45329;DHT22;31063;48.356;10.896;2022-11-18T05:26:07;8.20;99.90
45329;DHT22;31063;48.356;10.896;2022-11-18T05:28:33;8.20;99.90
45329;DHT22;31063;48.356;10.896;2022-11-18T05:30:59;8.10;99.90
45329;DHT22;31063;48.356;10.896;2022-11-18T05:33:30;8.20;99.90
45329;DHT22;31063;48.356;10.896;2022-11-18T05:35:55;8.20;99.90
45329;DHT22;31063;48.356;10.896;2022-11-18T05:38:21;8.20;99.90
45329;DHT22;31063;48.356;10.896;2022-11-18T05:40:47;8.10;99.90
45329;DHT22;31063;48.356;10.896;2022-11-18T05:43:12;8.10;99.90
45329;DHT22;31063;48.356;10.896;2022-11-18T05:45:39;8.10;99.90
45329;DHT22;31063;48.356;10.896;2022-11-18T05:48:07;8.10;99.90
45329;DHT22;31063;48.356;10.896;2022-11-18T05:50:36;8.10;99.90
45329;DHT22;31063;48.356;10.896;2022-11-18T05:53:03;8.10;99.90
45329;DHT22;31063;48.356;10.896;2022-11-18T05:55:34;8.10;99.90
45329;DHT22;31063;48.356;10.896;2022-11-18T05:58:00;8.10;99.90
45329;DHT22;31063;48.356;10.896;2022-11-18T06:00:26;8.10;99.90
45329;DHT22;31063;48.356;10.896;2022-11-18T06:02:53;8.10;99.90
45329;DHT22;31063;48.356;10.896;2022-11-18T06:05:21;8.10;99.90
45329;DHT22;31063;48.356;10.896;2022-11-18T06:07:48;8.00;99.90
45329;DHT22;31063;48.356;10.896;2022-11-18T06:10:20;8.00;99.90
45329;DHT22;31063;48.356;10.896;2022-11-18T06:12:49;7.90;99.90
45329;DHT22;31063;48.356;10.896;2022-11-18T06:15:22;7.90;99.90
45329;DHT22;31063;48.356;10.896;2022-11-18T06:18:01;7.90;99.90
45329;DHT22;31063;48.356;10.896;2022-11-18T06:20:28;7.90;99.90
45329;DHT22;31063;48.356;10.896;2022-11-18T06:22:55;7.90;99.90
45329;DHT22;31063;48.356;10.896;2022-11-18T06:25:22;7.90;99.90
45329;DHT22;31063;48.356;10.896;2022-11-18T06:27:48;7.80;99.90
45329;DHT22;31063;48.356;10.896;2022-11-18T06:30:15;7.80;99.90
45329;DHT22;31063;48.356;10.896;2022-11-18T06:32:40;7.80;99.90
45329;DHT22;31063;48.356;10.896;2022-11-18T06:35:07;7.80;99.90
45329;DHT22;31063;48.356;10.896;2022-11-18T06:37:32;7.70;99.90
45329;DHT22;31063;48.356;10.896;2022-11-18T06:39:58;7.70;99.90
45329;DHT22;31063;48.356;10.896;2022-11-18T06:42:26;7.70;99.90
45329;DHT22;31063;48.356;10.896;2022-11-18T06:45:11;7.70;99.90
45329;DHT22;31063;48.356;10.896;2022-11-18T06:47:36;7.70;99.90
45329;DHT22;31063;48.356;10.896;2022-11-18T06:50:02;7.70;99.90
45329;DHT22;31063;48.356;10.896;2022-11-18T06:52:28;7.70;99.90
45329;DHT22;31063;48.356;10.896;2022-11-18T06:54:54;7.60;99.90
45329;DHT22;31063;48.356;10.896;2022-11-18T06:57:19;7.60;99.90
45329;DHT22;31063;48.356;10.896;2022-11-18T06:59:45;7.60;99.90
45329;DHT22;31063;48.356;10.896;2022-11-18T07:02:10;7.60;99.90
45329;DHT22;31063;48.356;10.896;2022-11-18T07:04:36;7.60;99.90
45329;DHT22;31063;48.356;10.896;2022-11-18T07:07:05;7.60;99.90
45329;DHT22;31063;48.356;10.896;2022-11-18T07:09:31;7.50;99.90
45329;DHT22;31063;48.356;10.896;2022-11-18T07:11:56;7.40;99.90
45329;DHT22;31063;48.356;10.896;2022-11-18T07:14:22;7.50;99.90
45329;DHT22;31063;48.356;10.896;2022-11-18T07:16:47;7.40;99.90
45329;DHT22;31063;48.356;10.896;2022-11-18T07:19:13;7.30;99.90
45329;DHT22;31063;48.356;10.896;2022-11-18T07:21:39;7.30;99.90
45329;DHT22;31063;48.356;10.896;2022-11-18T07:24:06;7.20;99.90
45329;DHT22;31063;48.356;10.896;2022-11-18T07:26:33;7.20;99.90
45329;DHT22;31063;48.356;10.896;2022-11-18T07:28:59;7.10;99.90
45329;DHT22;31063;48.356;10.896;2022-11-18T07:31:25;7.10;99.90
45329;DHT22;31063;48.356;10.896;2022-11-18T07:33:50;7.10;99.90
45329;DHT22;31063;48.356;10.896;2022-11-18T07:36:21;7.00;99.90
45329;DHT22;31063;48.356;10.896;2022-11-18T07:38:48;7.00;99.90
45329;DHT22;31063;48.356;10.896;2022-11-18T07:41:16;7.00;99.90
45329;DHT22;31063;48.356;10.896;2022-11-18T07:43:42;7.00;99.90
45329;DHT22;31063;48.356;10.896;2022-11-18T07:46:19;6.90;99.90
45329;DHT22;31063;48.356;10.896;2022-11-18T07:48:46;6.80;99.90
45329;DHT22;31063;48.356;10.896;2022-11-18T07:51:14;6.90;99.90
45329;DHT22;31063;48.356;10.896;2022-11-18T07:53:40;6.90;99.90
45329;DHT22;31063;48.356;10.896;2022-11-18T07:56:07;6.90;99.90
45329;DHT22;31063;48.356;10.896;2022-11-18T07:58:34;6.90;99.90
45329;DHT22;31063;48.356;10.896;2022-11-18T08:01:17;6.80;99.90
45329;DHT22;31063;48.356;10.896;2022-11-18T08:03:44;6.90;99.90
45329;DHT22;31063;48.356;10.896;2022-11-18T08:06:12;6.80;99.90
45329;DHT22;31063;48.356;10.896;2022-11-18T08:08:38;6.80;99.90
45329;DHT22;31063;48.356;10.896;2022-11-18T08:11:05;6.80;99.90
45329;DHT22;31063;48.356;10.896;2022-11-18T08:13:32;6.80;99.90
45329;DHT22;31063;48.356;10.896;2022-11-18T08:15:57;6.80;99.90
45329;DHT22;31063;48.356;10.896;2022-11-18T08:18:24;6.80;99.90
45329;DHT22;31063;48.356;10.896;2022-11-18T08:20:50;6.80;99.90
45329;DHT22;31063;48.356;10.896;2022-11-18T08:23:16;6.80;99.90
45329;DHT22;31063;48.356;10.896;2022-11-18T08:25:43;6.80;99.90
45329;DHT22;31063;48.356;10.896;2022-11-18T08:28:10;6.80;99.90
45329;DHT22;31063;48.356;10.896;2022-11-18T08:30:36;6.80;99.90
45329;DHT22;31063;48.356;10.896;2022-11-18T08:33:02;6.80;99.90
45329;DHT22;31063;48.356;10.896;2022-11-18T08:35:29;6.70;99.90
45329;DHT22;31063;48.356;10.896;2022-11-18T08:37:55;6.80;99.90
45329;DHT22;31063;48.356;10.896;2022-11-18T08:40:20;6.80;99.90
45329;DHT22;31063;48.356;10.896;2022-11-18T08:42:46;6.80;99.90
45329;DHT22;31063;48.356;10.896;2022-11-18T08:45:12;6.70;99.90
45329;DHT22;31063;48.356;10.896;2022-11-18T08:47:38;6.70;99.90
45329;DHT22;31063;48.356;10.896;2022-11-18T08:50:05;6.70;99.90
45329;DHT22;31063;48.356;10.896;2022-11-18T08:52:32;6.70;99.90
45329;DHT22;31063;48.356;10.896;2022-11-18T08:54:57;6.70;99.90
45329;DHT22;31063;48.356;10.896;2022-11-18T08:57:23;6.80;99.90
45329;DHT22;31063;48.356;10.896;2022-11-18T08:59:49;6.70;99.90
45329;DHT22;31063;48.356;10.896;2022-11-18T09:02:16;6.70;99.90
45329;DHT22;31063;48.356;10.896;2022-11-18T09:04:42;6.70;99.90
45329;DHT22;31063;48.356;10.896;2022-11-18T09:07:08;6.70;99.90
45329;DHT22;31063;48.356;10.896;2022-11-18T09:09:34;6.70;99.90
45329;DHT22;31063;48.356;10.896;2022-11-18T09:11:59;6.70;99.90
45329;DHT22;31063;48.356;10.896;2022-11-18T09:14:25;6.70;99.90
45329;DHT22;31063;48.356;10.896;2022-11-18T09:16:50;6.70;99.90
45329;DHT22;31063;48.356;10.896;2022-11-18T09:19:16;6.70;99.90
45329;DHT22;31063;48.356;10.896;2022-11-18T09:21:42;6.60;99.90
45329;DHT22;31063;48.356;10.896;2022-11-18T09:24:08;6.60;99.90
45329;DHT22;31063;48.356;10.896;2022-11-18T09:26:36;6.60;99.90
45329;DHT22;31063;48.356;10.896;2022-11-18T09:29:02;6.70;99.90
45329;DHT22;31063;48.356;10.896;2022-11-18T09:31:28;6.60;99.90
45329;DHT22;31063;48.356;10.896;2022-11-18T09:33:54;6.60;99.90
45329;DHT22;31063;48.356;10.896;2022-11-18T09:36:22;6.60;99.90
45329;DHT22;31063;48.356;10.896;2022-11-18T09:38:47;6.60;99.90
45329;DHT22;31063;48.356;10.896;2022-11-18T09:41:35;6.60;99.90
45329;DHT22;31063;48.356;10.896;2022-11-18T09:46:58;6.80;99.90
45329;DHT22;31063;48.356;10.896;2022-11-18T09:49:31;6.70;99.90
45329;DHT22;31063;48.356;10.896;2022-11-18T09:52:01;6.80;99.90
45329;DHT22;31063;48.356;10.896;2022-11-18T09:54:33;6.80;99.90
45329;DHT22;31063;48.356;10.896;2022-11-18T09:56:59;6.90;99.90
45329;DHT22;31063;48.356;10.896;2022-11-18T09:59:26;6.90;99.90
45329;DHT22;31063;48.356;10.896;2022-11-18T10:01:58;7.00;99.90
45329;DHT22;31063;48.356;10.896;2022-11-18T10:04:27;7.00;99.90
45329;DHT22;31063;48.356;10.896;2022-11-18T10:06:53;7.10;99.90
45329;DHT22;31063;48.356;10.896;2022-11-18T10:09:27;7.10;99.90
45329;DHT22;31063;48.356;10.896;2022-11-18T10:12:03;7.10;99.90
45329;DHT22;31063;48.356;10.896;2022-11-18T10:15:15;7.20;99.90
45329;DHT22;31063;48.356;10.896;2022-11-18T10:18:04;7.20;99.90
45329;DHT22;31063;48.356;10.896;2022-11-18T10:21:53;7.30;99.90
45329;DHT22;31063;48.356;10.896;2022-11-18T10:24:03;7.40;99.90
45329;DHT22;31063;48.356;10.896;2022-11-18T10:26:38;7.40;99.90
45329;DHT22;31063;48.356;10.896;2022-11-18T10:29:04;7.50;99.90
45329;DHT22;31063;48.356;10.896;2022-11-18T10:31:38;7.50;99.90
45329;DHT22;31063;48.356;10.896;2022-11-18T10:34:05;7.50;99.90
45329;DHT22;31063;48.356;10.896;2022-11-18T10:36:34;7.60;99.90
45329;DHT22;31063;48.356;10.896;2022-11-18T10:39:14;7.60;99.90
45329;DHT22;31063;48.356;10.896;2022-11-18T10:41:51;7.60;99.90
45329;DHT22;31063;48.356;10.896;2022-11-18T10:44:40;7.60;99.90
45329;DHT22;31063;48.356;10.896;2022-11-18T10:47:26;7.60;99.90
45329;DHT22;31063;48.356;10.896;2022-11-18T10:49:55;7.60;99.90
45329;DHT22;31063;48.356;10.896;2022-11-18T10:52:21;7.50;99.90
45329;DHT22;31063;48.356;10.896;2022-11-18T10:55:06;7.40;99.90
45329;DHT22;31063;48.356;10.896;2022-11-18T10:57:35;7.40;99.90
45329;DHT22;31063;48.356;10.896;2022-11-18T11:00:04;7.40;99.90
45329;DHT22;31063;48.356;10.896;2022-11-18T11:02:32;7.30;99.90
45329;DHT22;31063;48.356;10.896;2022-11-18T11:05:02;7.30;99.90
45329;DHT22;31063;48.356;10.896;2022-11-18T11:07:33;7.20;99.90
45329;DHT22;31063;48.356;10.896;2022-11-18T11:12:37;7.30;99.90
45329;DHT22;31063;48.356;10.896;2022-11-18T11:15:17;7.30;99.90
45329;DHT22;31063;48.356;10.896;2022-11-18T11:20:35;7.20;99.90
45329;DHT22;31063;48.356;10.896;2022-11-18T11:23:10;7.30;99.90
45329;DHT22;31063;48.356;10.896;2022-11-18T11:25:43;7.20;99.90
45329;DHT22;31063;48.356;10.896;2022-11-18T11:28:29;7.20;99.90
45329;DHT22;31063;48.356;10.896;2022-11-18T11:36:32;7.20;99.90
45329;DHT22;31063;48.356;10.896;2022-11-18T11:42:13;7.20;99.90
45329;DHT22;31063;48.356;10.896;2022-11-18T11:47:32;7.10;99.90
45329;DHT22;31063;48.356;10.896;2022-11-18T12:01:19;7.00;99.90
45329;DHT22;31063;48.356;10.896;2022-11-18T12:06:25;7.00;99.90
45329;DHT22;31063;48.356;10.896;2022-11-18T12:09:14;6.90;99.90
45329;DHT22;31063;48.356;10.896;2022-11-18T12:12:22;7.00;99.90
45329;DHT22;31063;48.356;10.896;2022-11-18T12:15:37;7.00;99.90
45329;DHT22;31063;48.356;10.896;2022-11-18T12:20:44;6.90;99.90
45329;DHT22;31063;48.356;10.896;2022-11-18T12:23:18;6.90;99.90
45329;DHT22;31063;48.356;10.896;2022-11-18T12:34:01;6.90;99.90
45329;DHT22;31063;48.356;10.896;2022-11-18T12:36:35;6.80;99.90
45329;DHT22;31063;48.356;10.896;2022-11-18T12:42:00;6.80;99.90
45329;DHT22;31063;48.356;10.896;2022-11-18T12:44:47;6.80;99.90
45329;DHT22;31063;48.356;10.896;2022-11-18T12:47:15;6.90;99.90
45329;DHT22;31063;48.356;10.896;2022-11-18T12:54:57;6.90;99.90
45329;DHT22;31063;48.356;10.896;2022-11-18T12:57:32;6.90;99.90
45329;DHT22;31063;48.356;10.896;2022-11-18T13:00:14;6.90;99.90
45329;DHT22;31063;48.356;10.896;2022-11-18T13:02:59;7.00;99.90
45329;DHT22;31063;48.356;10.896;2022-11-18T13:05:34;6.90;99.90
45329;DHT22;31063;48.356;10.896;2022-11-18T13:08:08;7.00;99.90
45329;DHT22;31063;48.356;10.896;2022-11-18T13:10:51;6.90;99.90
45329;DHT22;31063;48.356;10.896;2022-11-18T13:13:38;6.90;99.90
45329;DHT22;31063;48.356;10.896;2022-11-18T13:16:12;6.90;99.90
45329;DHT22;31063;48.356;10.896;2022-11-18T13:18:56;6.90;99.90
45329;DHT22;31063;48.356;10.896;2022-11-18T13:21:25;6.90;99.90
45329;DHT22;31063;48.356;10.896;2022-11-18T13:24:11;7.00;99.90
45329;DHT22;31063;48.356;10.896;2022-11-18T13:26:40;6.90;99.90
45329;DHT22;31063;48.356;10.896;2022-11-18T13:34:24;7.00;99.90
45329;DHT22;31063;48.356;10.896;2022-11-18T13:36:52;7.00;99.90
45329;DHT22;31063;48.356;10.896;2022-11-18T13:39:21;7.00;99.90
45329;DHT22;31063;48.356;10.896;2022-11-18T13:42:04;7.00;99.90
45329;DHT22;31063;48.356;10.896;2022-11-18T13:52:40;7.10;99.90
45329;DHT22;31063;48.356;10.896;2022-11-18T13:55:25;7.10;99.90
45329;DHT22;31063;48.356;10.896;2022-11-18T13:58:05;7.10;99.90
45329;DHT22;31063;48.356;10.896;2022-11-18T14:00:33;7.10;99.90
45329;DHT22;31063;48.356;10.896;2022-11-18T14:03:25;7.10;99.90
45329;DHT22;31063;48.356;10.896;2022-11-18T14:05:53;7.10;99.90
45329;DHT22;31063;48.356;10.896;2022-11-18T14:08:38;7.10;99.90
45329;DHT22;31063;48.356;10.896;2022-11-18T14:11:05;7.00;99.90
45329;DHT22;31063;48.356;10.896;2022-11-18T14:13:36;7.00;99.90
45329;DHT22;31063;48.356;10.896;2022-11-18T14:18:46;7.00;99.90
45329;DHT22;31063;48.356;10.896;2022-11-18T14:21:13;7.00;99.90
45329;DHT22;31063;48.356;10.896;2022-11-18T14:23:50;7.10;99.90
45329;DHT22;31063;48.356;10.896;2022-11-18T14:26:33;6.90;99.90
45329;DHT22;31063;48.356;10.896;2022-11-18T14:29:01;6.90;99.90
45329;DHT22;31063;48.356;10.896;2022-11-18T14:31:29;6.90;99.90
45329;DHT22;31063;48.356;10.896;2022-11-18T14:36:39;6.90;99.90
45329;DHT22;31063;48.356;10.896;2022-11-18T14:39:22;6.90;99.90
45329;DHT22;31063;48.356;10.896;2022-11-18T14:41:49;6.90;99.90
45329;DHT22;31063;48.356;10.896;2022-11-18T14:44:20;7.00;99.90
45329;DHT22;31063;48.356;10.896;2022-11-18T14:46:57;6.90;99.90
45329;DHT22;31063;48.356;10.896;2022-11-18T14:49:24;7.00;99.90
45329;DHT22;31063;48.356;10.896;2022-11-18T14:51:51;7.00;99.90
45329;DHT22;31063;48.356;10.896;2022-11-18T14:54:18;7.00;99.90
45329;DHT22;31063;48.356;10.896;2022-11-18T14:56:46;7.00;99.90
45329;DHT22;31063;48.356;10.896;2022-11-18T14:59:13;7.10;99.90
45329;DHT22;31063;48.356;10.896;2022-11-18T15:01:39;7.00;99.90
45329;DHT22;31063;48.356;10.896;2022-11-18T15:04:04;7.10;99.90
45329;DHT22;31063;48.356;10.896;2022-11-18T15:06:30;7.20;99.90
45329;DHT22;31063;48.356;10.896;2022-11-18T15:08:56;7.10;99.90
45329;DHT22;31063;48.356;10.896;2022-11-18T15:11:21;7.20;99.90
45329;DHT22;31063;48.356;10.896;2022-11-18T15:13:47;7.10;99.90
45329;DHT22;31063;48.356;10.896;2022-11-18T15:16:21;7.10;99.90
45329;DHT22;31063;48.356;10.896;2022-11-18T15:18:50;7.20;99.90
45329;DHT22;31063;48.356;10.896;2022-11-18T15:21:16;7.20;99.90
45329;DHT22;31063;48.356;10.896;2022-11-18T15:23:42;7.20;99.90
45329;DHT22;31063;48.356;10.896;2022-11-18T15:26:15;7.30;99.90
45329;DHT22;31063;48.356;10.896;2022-11-18T15:28:42;7.30;99.90
45329;DHT22;31063;48.356;10.896;2022-11-18T15:31:07;7.30;99.90
45329;DHT22;31063;48.356;10.896;2022-11-18T15:33:33;7.30;99.90
45329;DHT22;31063;48.356;10.896;2022-11-18T15:35:59;7.30;99.90
45329;DHT22;31063;48.356;10.896;2022-11-18T15:38:24;7.30;99.90
45329;DHT22;31063;48.356;10.896;2022-11-18T15:40:50;7.30;99.90
45329;DHT22;31063;48.356;10.896;2022-11-18T15:43:15;7.30;99.90
45329;DHT22;31063;48.356;10.896;2022-11-18T15:45:42;7.30;99.90
45329;DHT22;31063;48.356;10.896;2022-11-18T15:48:08;7.30;99.90
45329;DHT22;31063;48.356;10.896;2022-11-18T15:50:33;7.30;99.90
45329;DHT22;31063;48.356;10.896;2022-11-18T15:52:59;7.20;99.90
45329;DHT22;31063;48.356;10.896;2022-11-18T15:55:25;7.20;99.90
45329;DHT22;31063;48.356;10.896;2022-11-18T15:57:50;7.10;99.90
45329;DHT22;31063;48.356;10.896;2022-11-18T16:00:16;7.10;99.90
45329;DHT22;31063;48.356;10.896;2022-11-18T16:02:42;7.10;99.90
45329;DHT22;31063;48.356;10.896;2022-11-18T16:05:08;7.10;99.90
45329;DHT22;31063;48.356;10.896;2022-11-18T16:07:33;7.10;99.90
45329;DHT22;31063;48.356;10.896;2022-11-18T16:09:59;7.10;99.90
45329;DHT22;31063;48.356;10.896;2022-11-18T16:12:43;7.00;99.90
45329;DHT22;31063;48.356;10.896;2022-11-18T16:15:12;7.10;99.90
45329;DHT22;31063;48.356;10.896;2022-11-18T16:17:56;7.00;99.90
45329;DHT22;31063;48.356;10.896;2022-11-18T16:20:26;7.00;99.90
45329;DHT22;31063;48.356;10.896;2022-11-18T16:22:52;7.00;99.90
45329;DHT22;31063;48.356;10.896;2022-11-18T16:25:19;7.00;99.90
45329;DHT22;31063;48.356;10.896;2022-11-18T16:27:44;7.00;99.90
45329;DHT22;31063;48.356;10.896;2022-11-18T16:30:11;7.00;99.90
45329;DHT22;31063;48.356;10.896;2022-11-18T16:32:56;7.00;99.90
45329;DHT22;31063;48.356;10.896;2022-11-18T16:35:22;7.00;99.90
45329;DHT22;31063;48.356;10.896;2022-11-18T16:37:47;7.00;99.90
45329;DHT22;31063;48.356;10.896;2022-11-18T16:40:13;7.00;99.90
45329;DHT22;31063;48.356;10.896;2022-11-18T16:42:39;7.00;99.90
45329;DHT22;31063;48.356;10.896;2022-11-18T16:45:05;7.00;99.90
45329;DHT22;31063;48.356;10.896;2022-11-18T16:47:31;7.00;99.90
45329;DHT22;31063;48.356;10.896;2022-11-18T16:49:56;7.00;99.90
45329;DHT22;31063;48.356;10.896;2022-11-18T16:52:22;7.00;99.90
45329;DHT22;31063;48.356;10.896;2022-11-18T16:54:47;6.90;99.90
45329;DHT22;31063;48.356;10.896;2022-11-18T16:57:13;6.90;99.90
45329;DHT22;31063;48.356;10.896;2022-11-18T16:59:39;7.00;99.90
45329;DHT22;31063;48.356;10.896;2022-11-18T17:02:05;7.00;99.90
45329;DHT22;31063;48.356;10.896;2022-11-18T17:04:31;7.00;99.90
45329;DHT22;31063;48.356;10.896;2022-11-18T17:06:59;6.90;99.90
45329;DHT22;31063;48.356;10.896;2022-11-18T17:09:25;6.90;99.90
45329;DHT22;31063;48.356;10.896;2022-11-18T17:11:52;6.90;99.90
45329;DHT22;31063;48.356;10.896;2022-11-18T17:14:18;6.90;99.90
45329;DHT22;31063;48.356;10.896;2022-11-18T17:16:44;6.90;99.90
45329;DHT22;31063;48.356;10.896;2022-11-18T17:19:15;6.90;99.90
45329;DHT22;31063;48.356;10.896;2022-11-18T17:21:42;6.90;99.90